createdAt,value
2023-12-30T00:00:03.465Z,3.40
2023-12-30T00:02:35.833Z,6.95
2023-12-30T00:04:53.071Z,8.30
2023-12-30T00:07:10.018Z,3.83
2023-12-30T00:09:26.999Z,4.15
2023-12-30T00:11:44.133Z,5.50
2023-12-30T00:14:01.505Z,6.57
2023-12-30T00:16:18.946Z,5.32
2023-12-30T00:18:36.319Z,6.65
2023-12-30T00:20:53.739Z,5.93
2023-12-30T00:23:11.021Z,4.53
2023-12-30T00:25:28.422Z,10.48
2023-12-30T00:27:45.406Z,8.10
2023-12-30T00:30:02.855Z,5.43
2023-12-30T00:32:20.164Z,4.38
2023-12-30T00:34:37.560Z,8.93
2023-12-30T00:36:54.601Z,5.65
2023-12-30T00:39:11.996Z,6.60
2023-12-30T00:41:29.335Z,4.93
2023-12-30T00:43:46.243Z,5.18
2023-12-30T00:46:03.566Z,9.88
2023-12-30T00:48:20.607Z,4.10
2023-12-30T00:50:37.951Z,6.50
2023-12-30T00:52:55.250Z,8.98
2023-12-30T00:55:12.288Z,6.05
2023-12-30T00:57:29.259Z,8.00
2023-12-30T00:59:46.676Z,5.15
2023-12-30T01:02:05.035Z,10.23
2023-12-30T01:04:22.064Z,5.47
2023-12-30T01:06:39.106Z,8.88
2023-12-30T01:08:56.038Z,7.18
2023-12-30T01:11:13.352Z,4.25
2023-12-30T01:13:30.360Z,7.68
2023-12-30T01:15:48.832Z,9.32
2023-12-30T01:18:05.929Z,3.50
2023-12-30T01:20:23.085Z,4.10
2023-12-30T01:22:40.420Z,5.88
2023-12-30T01:24:57.388Z,5.22
2023-12-30T01:27:14.344Z,6.55
2023-12-30T01:29:31.645Z,4.20
2023-12-30T01:31:48.719Z,5.30
2023-12-30T01:34:05.856Z,5.40
2023-12-30T01:36:22.916Z,4.38
2023-12-30T01:38:40.260Z,6.40
2023-12-30T01:40:57.625Z,6.93
2023-12-30T01:43:14.647Z,4.53
2023-12-30T01:45:31.696Z,4.57
2023-12-30T01:47:49.115Z,4.43
2023-12-30T01:50:06.505Z,7.30
2023-12-30T01:52:23.845Z,7.32
2023-12-30T01:54:40.790Z,8.45
2023-12-30T01:56:57.744Z,6.82
2023-12-30T01:59:15.997Z,4.43
2023-12-30T02:01:33.100Z,5.47
2023-12-30T02:03:50.183Z,5.88
2023-12-30T02:06:07.193Z,6.75
2023-12-30T02:08:24.149Z,5.20
2023-12-30T02:10:41.060Z,4.63
2023-12-30T02:12:58.381Z,6.35
2023-12-30T02:15:15.722Z,5.60
2023-12-30T02:17:32.832Z,11.88
2023-12-30T02:19:49.915Z,6.32
2023-12-30T02:22:07.084Z,6.00
2023-12-30T02:24:25.066Z,5.88
2023-12-30T02:26:42.375Z,4.78
2023-12-30T02:28:59.384Z,6.70
2023-12-30T02:31:16.396Z,5.82
2023-12-30T02:33:33.789Z,5.57
2023-12-30T02:35:51.115Z,7.43
2023-12-30T02:38:08.530Z,6.07
2023-12-30T02:40:25.959Z,9.18
2023-12-30T02:42:42.920Z,5.35
2023-12-30T02:44:59.847Z,7.55
2023-12-30T02:47:16.810Z,8.43
2023-12-30T02:49:34.394Z,6.53
2023-12-30T02:51:51.802Z,5.18
2023-12-30T02:54:09.114Z,4.53
2023-12-30T02:56:26.289Z,5.95
2023-12-30T02:58:43.349Z,8.77
2023-12-30T03:01:00.386Z,7.82
2023-12-30T03:03:17.309Z,4.43
2023-12-30T03:05:34.692Z,6.60
2023-12-30T03:07:51.663Z,6.43
2023-12-30T03:10:09.084Z,7.28
2023-12-30T03:12:26.488Z,4.63
2023-12-30T03:14:43.968Z,8.05
2023-12-30T03:17:00.954Z,7.50
2023-12-30T03:19:18.394Z,4.40
2023-12-30T03:21:35.695Z,7.05
2023-12-30T03:23:53.118Z,6.93
2023-12-30T03:26:10.062Z,5.53
2023-12-30T03:28:27.439Z,7.72
2023-12-30T03:30:44.547Z,8.13
2023-12-30T03:33:02.319Z,5.28
2023-12-30T03:35:19.875Z,5.03
2023-12-30T03:37:37.338Z,8.75
2023-12-30T03:39:54.778Z,7.90
2023-12-30T03:42:11.775Z,5.03
2023-12-30T03:44:28.734Z,9.30
2023-12-30T03:46:46.680Z,7.15
2023-12-30T03:49:04.081Z,4.53
2023-12-30T03:51:21.115Z,9.55
2023-12-30T03:53:38.209Z,10.00
2023-12-30T03:55:55.222Z,4.85
2023-12-30T03:58:12.218Z,6.05
2023-12-30T04:00:29.157Z,7.43
2023-12-30T04:02:46.149Z,9.13
2023-12-30T04:05:03.127Z,7.45
2023-12-30T04:07:20.194Z,9.07
2023-12-30T04:09:37.257Z,7.60
2023-12-30T04:11:54.238Z,6.25
2023-12-30T04:14:11.557Z,7.35
2023-12-30T04:16:28.610Z,6.80
2023-12-30T04:18:45.650Z,4.72
2023-12-30T04:21:02.692Z,9.93
2023-12-30T04:23:19.629Z,7.45
2023-12-30T04:25:36.973Z,7.47
2023-12-30T04:27:54.432Z,10.65
2023-12-30T04:30:11.751Z,5.82
2023-12-30T04:32:28.762Z,7.18
2023-12-30T04:34:45.811Z,9.18
2023-12-30T04:37:02.868Z,10.50
2023-12-30T04:39:20.236Z,6.07
2023-12-30T04:41:37.593Z,6.68
2023-12-30T04:43:54.517Z,8.07
2023-12-30T04:46:11.487Z,6.72
2023-12-30T04:48:28.902Z,6.00
2023-12-30T04:50:46.285Z,8.32
2023-12-30T04:53:03.635Z,5.55
2023-12-30T04:55:21.223Z,7.93
2023-12-30T04:57:38.194Z,6.57
2023-12-30T04:59:55.170Z,6.65
2023-12-30T05:02:12.160Z,12.20
2023-12-30T05:04:29.634Z,13.00
2023-12-30T05:06:46.745Z,10.75
2023-12-30T05:09:04.307Z,7.93
2023-12-30T05:11:21.661Z,7.72
2023-12-30T05:13:38.720Z,8.55
2023-12-30T05:15:55.798Z,9.38
2023-12-30T05:18:12.890Z,3.55
2023-12-30T05:20:29.900Z,5.03
2023-12-30T05:22:47.044Z,5.07
2023-12-30T05:25:04.414Z,4.60
2023-12-30T05:27:21.339Z,6.53
2023-12-30T05:29:38.253Z,3.78
2023-12-30T05:31:55.594Z,3.95
2023-12-30T05:34:12.579Z,4.43
2023-12-30T05:36:29.979Z,3.95
2023-12-30T05:38:47.295Z,3.17
2023-12-30T05:41:04.604Z,6.97
2023-12-30T05:43:24.107Z,3.63
2023-12-30T05:45:41.203Z,2.60
2023-12-30T05:47:59.143Z,4.53
2023-12-30T05:50:16.202Z,2.22
2023-12-30T05:52:33.611Z,2.58
2023-12-30T05:54:50.624Z,1.27
2023-12-30T05:57:07.991Z,3.05
2023-12-30T05:59:25.432Z,3.60
2023-12-30T06:01:42.473Z,3.00
2023-12-30T06:03:59.972Z,6.20
2023-12-30T06:06:17.364Z,6.38
2023-12-30T06:08:34.744Z,7.45
2023-12-30T06:10:52.068Z,5.93
2023-12-30T06:13:09.451Z,24.00
2023-12-30T06:15:26.412Z,9.95
2023-12-30T06:17:43.498Z,13.68
2023-12-30T06:20:01.112Z,19.60
2023-12-30T06:22:18.221Z,7.43
2023-12-30T06:24:35.258Z,8.80
2023-12-30T06:26:52.641Z,6.85
2023-12-30T06:29:09.782Z,5.88
2023-12-30T06:31:27.237Z,6.13
2023-12-30T06:33:44.374Z,7.03
2023-12-30T06:36:01.538Z,7.32
2023-12-30T06:38:18.568Z,7.00
2023-12-30T06:40:35.664Z,7.50
2023-12-30T06:42:53.086Z,8.50
2023-12-30T06:45:10.358Z,14.52
2023-12-30T06:47:27.705Z,10.82
2023-12-30T06:49:44.729Z,9.70
2023-12-30T06:52:02.167Z,8.35
2023-12-30T06:54:19.607Z,9.77
2023-12-30T06:56:36.960Z,6.75
2023-12-30T06:58:54.139Z,7.53
2023-12-30T07:01:11.545Z,10.30
2023-12-30T07:03:28.555Z,8.55
2023-12-30T07:05:46.018Z,11.63
2023-12-30T07:08:02.923Z,5.43
2023-12-30T07:10:19.908Z,9.23
2023-12-30T07:12:36.970Z,6.82
2023-12-30T07:14:54.309Z,8.30
2023-12-30T07:17:11.287Z,10.98
2023-12-30T07:19:28.625Z,20.77
2023-12-30T07:21:46.015Z,7.78
2023-12-30T07:24:02.949Z,9.95
2023-12-30T07:26:19.890Z,9.38
2023-12-30T07:28:37.228Z,7.45
2023-12-30T07:30:54.398Z,5.53
2023-12-30T07:33:11.837Z,8.15
2023-12-30T07:35:28.824Z,6.65
2023-12-30T07:37:45.764Z,9.27
2023-12-30T07:40:02.842Z,4.97
2023-12-30T07:42:21.326Z,6.13
2023-12-30T07:44:39.743Z,7.35
2023-12-30T07:46:57.084Z,8.30
2023-12-30T07:49:14.080Z,8.07
2023-12-30T07:51:31.082Z,4.57
2023-12-30T07:53:48.031Z,4.82
2023-12-30T07:56:04.991Z,6.45
2023-12-30T07:58:21.936Z,10.45
2023-12-30T08:00:38.959Z,6.13
2023-12-30T08:02:56.284Z,12.40
2023-12-30T08:05:13.795Z,8.13
2023-12-30T08:07:31.198Z,5.05
2023-12-30T08:09:48.144Z,6.43
2023-12-30T08:12:05.561Z,4.60
2023-12-30T08:14:22.577Z,7.32
2023-12-30T08:16:40.000Z,5.13
2023-12-30T08:18:57.530Z,9.32
2023-12-30T08:21:14.906Z,7.03
2023-12-30T08:23:32.208Z,5.85
2023-12-30T08:25:49.249Z,7.28
2023-12-30T08:28:06.612Z,7.15
2023-12-30T08:30:23.701Z,8.38
2023-12-30T08:32:40.680Z,9.07
2023-12-30T08:34:57.858Z,8.23
2023-12-30T08:37:15.212Z,7.97
2023-12-30T08:39:33.529Z,6.95
2023-12-30T08:41:50.866Z,7.88
2023-12-30T08:44:08.242Z,9.93
2023-12-30T08:46:25.608Z,6.40
2023-12-30T08:48:42.738Z,7.72
2023-12-30T08:51:00.156Z,11.73
2023-12-30T08:53:17.323Z,9.88
2023-12-30T08:55:34.304Z,16.65
2023-12-30T08:57:51.432Z,16.80
2023-12-30T09:00:08.505Z,14.80
2023-12-30T09:02:26.305Z,19.80
2023-12-30T09:04:43.395Z,21.10
2023-12-30T09:07:00.769Z,74.95
2023-12-30T09:09:18.068Z,53.63
2023-12-30T09:11:35.167Z,42.72
2023-12-30T09:13:52.124Z,53.90
2023-12-30T09:16:09.726Z,36.95
2023-12-30T09:18:26.968Z,36.25
2023-12-30T09:20:44.420Z,37.85
2023-12-30T09:23:01.650Z,43.30
2023-12-30T09:25:19.107Z,32.67
2023-12-30T09:27:36.127Z,39.97
2023-12-30T09:29:53.524Z,31.00
2023-12-30T09:32:10.540Z,38.53
2023-12-30T09:34:34.324Z,28.88
2023-12-30T09:36:59.938Z,23.77
2023-12-30T09:39:17.402Z,25.80
2023-12-30T09:41:34.809Z,27.83
2023-12-30T09:43:51.887Z,21.90
2023-12-30T09:46:08.964Z,31.13
2023-12-30T09:48:26.043Z,21.63
2023-12-30T09:50:43.498Z,21.73
2023-12-30T09:53:01.076Z,23.48
2023-12-30T09:55:19.192Z,17.08
2023-12-30T09:57:36.609Z,17.45
2023-12-30T09:59:53.982Z,16.25
2023-12-30T10:02:11.206Z,16.50
2023-12-30T10:04:28.303Z,16.30
2023-12-30T10:06:45.328Z,17.88
2023-12-30T10:09:02.293Z,14.57
2023-12-30T10:11:19.270Z,22.83
2023-12-30T10:13:37.656Z,19.65
2023-12-30T10:15:55.072Z,23.73
2023-12-30T10:18:12.291Z,23.38
2023-12-30T10:20:29.342Z,21.98
2023-12-30T10:22:46.302Z,19.63
2023-12-30T10:25:03.382Z,17.40
2023-12-30T10:27:20.384Z,16.45
2023-12-30T10:29:46.478Z,9.45
2023-12-30T10:32:08.279Z,12.48
2023-12-30T10:34:25.815Z,10.10
2023-12-30T10:36:42.836Z,8.20
2023-12-30T10:38:59.765Z,8.32
2023-12-30T10:41:17.077Z,8.55
2023-12-30T10:43:34.140Z,8.35
2023-12-30T10:45:51.599Z,6.40
2023-12-30T10:48:09.027Z,5.32
2023-12-30T10:50:26.466Z,7.75
2023-12-30T10:52:43.604Z,5.20
2023-12-30T10:55:01.042Z,6.40
2023-12-30T10:57:18.413Z,5.80
2023-12-30T10:59:35.342Z,6.18
2023-12-30T11:01:53.668Z,5.30
2023-12-30T11:04:11.056Z,5.13
2023-12-30T11:06:28.221Z,6.13
2023-12-30T11:08:45.372Z,8.00
2023-12-30T11:11:03.117Z,4.82
2023-12-30T11:13:20.422Z,8.13
2023-12-30T11:15:37.788Z,6.80
2023-12-30T11:17:54.977Z,4.43
2023-12-30T11:20:12.051Z,6.28
2023-12-30T11:22:29.081Z,5.63
2023-12-30T11:24:46.063Z,5.65
2023-12-30T11:27:03.354Z,5.43
2023-12-30T11:29:20.352Z,6.72
2023-12-30T11:31:37.798Z,9.30
2023-12-30T11:33:55.355Z,9.63
2023-12-30T11:36:12.427Z,9.77
2023-12-30T11:38:29.362Z,11.10
2023-12-30T11:40:46.671Z,5.68
2023-12-30T11:43:04.362Z,7.68
2023-12-30T11:45:21.389Z,7.80
2023-12-30T11:47:38.430Z,6.88
2023-12-30T11:49:55.594Z,10.90
2023-12-30T11:52:12.995Z,12.98
2023-12-30T11:54:29.949Z,7.53
2023-12-30T11:56:47.096Z,7.88
2023-12-30T11:59:04.797Z,9.80
2023-12-30T12:01:22.260Z,10.35
2023-12-30T12:03:39.425Z,8.70
2023-12-30T12:05:56.500Z,6.88
2023-12-30T12:08:13.908Z,7.72
2023-12-30T12:10:31.045Z,6.70
2023-12-30T12:12:48.089Z,7.13
2023-12-30T12:15:05.192Z,6.85
2023-12-30T12:17:22.585Z,9.57
2023-12-30T12:19:40.040Z,8.48
2023-12-30T12:21:57.093Z,6.85
2023-12-30T12:24:14.344Z,7.43
2023-12-30T12:26:33.068Z,8.50
2023-12-30T12:28:50.593Z,13.05
2023-12-30T12:31:07.780Z,7.05
2023-12-30T12:33:25.365Z,6.07
2023-12-30T12:35:42.770Z,8.15
2023-12-30T12:38:00.130Z,8.27
2023-12-30T12:40:17.580Z,7.22
2023-12-30T12:42:34.636Z,9.07
2023-12-30T12:44:51.997Z,25.55
2023-12-30T12:47:08.947Z,15.35
2023-12-30T12:49:25.967Z,11.55
2023-12-30T12:51:43.060Z,7.00
2023-12-30T12:54:00.048Z,11.60
2023-12-30T12:56:17.257Z,14.25
2023-12-30T12:58:34.317Z,8.32
2023-12-30T13:00:52.423Z,8.75
2023-12-30T13:03:09.867Z,7.03
2023-12-30T13:05:27.708Z,11.45
2023-12-30T13:07:44.950Z,12.82
2023-12-30T13:10:03.078Z,7.82
2023-12-30T13:12:20.449Z,8.75
2023-12-30T13:14:38.437Z,10.32
2023-12-30T13:16:55.775Z,6.30
2023-12-30T13:19:13.237Z,5.97
2023-12-30T13:21:30.652Z,6.72
2023-12-30T13:23:48.018Z,7.93
2023-12-30T13:26:05.579Z,8.68
2023-12-30T13:28:23.245Z,6.45
2023-12-30T13:30:40.681Z,7.65
2023-12-30T13:32:57.900Z,8.95
2023-12-30T13:35:15.293Z,8.85
2023-12-30T13:37:32.328Z,9.45
2023-12-30T13:39:50.290Z,11.00
2023-12-30T13:42:07.629Z,7.60
2023-12-30T13:44:24.573Z,6.30
2023-12-30T13:46:41.661Z,9.70
2023-12-30T13:48:59.235Z,11.85
2023-12-30T13:51:16.398Z,8.50
2023-12-30T13:53:33.336Z,7.22
2023-12-30T13:55:50.761Z,10.88
2023-12-30T13:58:08.100Z,7.90
2023-12-30T14:00:25.442Z,10.10
2023-12-30T14:02:43.254Z,5.88
2023-12-30T14:05:00.830Z,6.82
2023-12-30T14:07:18.233Z,8.15
2023-12-30T14:09:35.311Z,10.57
2023-12-30T14:11:52.738Z,9.32
2023-12-30T14:14:09.786Z,11.77
2023-12-30T14:16:26.738Z,7.57
2023-12-30T14:18:44.079Z,8.57
2023-12-30T14:21:01.593Z,7.30
2023-12-30T14:23:18.657Z,7.95
2023-12-30T14:25:36.108Z,8.88
2023-12-30T14:27:53.090Z,6.53
2023-12-30T14:30:10.165Z,8.68
2023-12-30T14:32:27.240Z,7.13
2023-12-30T14:34:44.253Z,4.50
2023-12-30T14:37:01.560Z,7.15
2023-12-30T14:39:18.929Z,4.53
2023-12-30T14:41:35.900Z,7.18
2023-12-30T14:43:52.956Z,7.93
2023-12-30T14:46:10.304Z,9.45
2023-12-30T14:48:27.377Z,9.40
2023-12-30T14:50:44.388Z,8.25
2023-12-30T14:53:01.793Z,8.32
2023-12-30T14:55:19.416Z,8.07
2023-12-30T14:57:36.389Z,6.22
2023-12-30T14:59:53.402Z,4.85
2023-12-30T15:02:10.391Z,7.93
2023-12-30T15:04:27.337Z,11.85
2023-12-30T15:06:44.758Z,5.45
2023-12-30T15:09:01.722Z,9.27
2023-12-30T15:11:19.041Z,10.63
2023-12-30T15:13:36.065Z,13.43
2023-12-30T15:15:53.400Z,9.40
2023-12-30T15:18:10.835Z,10.15
2023-12-30T15:20:27.842Z,17.48
2023-12-30T15:22:44.935Z,7.00
2023-12-30T15:25:02.394Z,11.38
2023-12-30T15:27:19.774Z,9.35
2023-12-30T15:29:37.107Z,8.93
2023-12-30T15:31:54.234Z,12.25
2023-12-30T15:34:11.515Z,8.35
2023-12-30T15:36:28.950Z,8.52
2023-12-30T15:38:45.883Z,5.53
2023-12-30T15:41:03.500Z,6.22
2023-12-30T15:43:20.525Z,8.38
2023-12-30T15:45:37.534Z,9.43
2023-12-30T15:47:54.615Z,6.35
2023-12-30T15:50:11.723Z,6.65
2023-12-30T15:52:28.822Z,12.63
2023-12-30T15:54:45.861Z,8.77
2023-12-30T15:57:02.872Z,5.07
2023-12-30T15:59:20.170Z,6.38
2023-12-30T16:01:37.580Z,6.80
2023-12-30T16:03:54.652Z,6.40
2023-12-30T16:06:11.638Z,5.63
2023-12-30T16:08:28.528Z,7.30
2023-12-30T16:10:45.864Z,3.42
2023-12-30T16:13:03.176Z,7.35
2023-12-30T16:15:20.408Z,8.07
2023-12-30T16:17:37.450Z,6.63
2023-12-30T16:19:54.480Z,6.07
2023-12-30T16:22:11.532Z,5.25
2023-12-30T16:24:28.513Z,3.72
2023-12-30T16:26:45.480Z,5.47
2023-12-30T16:29:02.948Z,4.60
2023-12-30T16:31:20.086Z,6.22
2023-12-30T16:33:37.189Z,6.15
2023-12-30T16:35:54.200Z,4.15
2023-12-30T16:38:11.135Z,5.63
2023-12-30T16:40:28.635Z,8.02
2023-12-30T16:42:45.632Z,6.38
2023-12-30T16:45:03.021Z,8.95
2023-12-30T16:47:20.460Z,16.52
2023-12-30T16:49:37.537Z,17.42
2023-12-30T16:51:54.544Z,27.02
2023-12-30T16:54:11.909Z,34.97
2023-12-30T16:56:28.877Z,28.52
2023-12-30T16:58:46.134Z,21.08
2023-12-30T17:01:04.038Z,20.00
2023-12-30T17:03:21.045Z,24.35
2023-12-30T17:05:38.442Z,17.58
2023-12-30T17:07:55.473Z,26.85
2023-12-30T17:10:12.427Z,48.53
2023-12-30T17:12:29.441Z,62.90
2023-12-30T17:14:46.537Z,62.95
2023-12-30T17:17:04.026Z,47.45
2023-12-30T17:19:22.143Z,41.15
2023-12-30T17:21:39.177Z,24.98
2023-12-30T17:23:56.154Z,23.77
2023-12-30T17:26:13.110Z,19.67
2023-12-30T17:28:30.218Z,21.15
2023-12-30T17:30:47.262Z,18.33
2023-12-30T17:33:04.943Z,21.17
2023-12-30T17:35:22.179Z,13.27
2023-12-30T17:37:40.346Z,13.90
2023-12-30T17:39:57.451Z,15.32
2023-12-30T17:42:14.540Z,8.23
2023-12-30T17:44:31.986Z,9.82
2023-12-30T17:46:50.254Z,9.80
2023-12-30T17:49:08.219Z,10.43
2023-12-30T17:51:25.517Z,8.30
2023-12-30T17:53:42.819Z,6.18
2023-12-30T17:56:00.178Z,7.15
2023-12-30T17:58:17.188Z,5.22
2023-12-30T18:00:34.546Z,8.52
2023-12-30T18:02:51.868Z,9.32
2023-12-30T18:05:08.867Z,8.77
2023-12-30T18:07:26.518Z,9.05
2023-12-30T18:09:45.261Z,10.35
2023-12-30T18:12:05.045Z,11.50
2023-12-30T18:14:21.986Z,11.45
2023-12-30T18:16:39.011Z,10.23
2023-12-30T18:18:56.458Z,13.75
2023-12-30T18:21:13.550Z,9.10
2023-12-30T18:23:30.896Z,10.35
2023-12-30T18:25:49.332Z,14.45
2023-12-30T18:28:06.402Z,10.10
2023-12-30T18:30:23.427Z,13.18
2023-12-30T18:32:40.794Z,14.88
2023-12-30T18:34:58.181Z,16.83
2023-12-30T18:37:15.411Z,9.57
2023-12-30T18:39:32.959Z,9.18
2023-12-30T18:41:49.909Z,11.73
2023-12-30T18:44:07.250Z,9.90
2023-12-30T18:46:24.590Z,11.77
2023-12-30T18:48:41.665Z,12.13
2023-12-30T18:50:58.752Z,10.13
2023-12-30T18:53:15.803Z,12.65
2023-12-30T18:55:33.119Z,13.15
2023-12-30T18:57:50.142Z,12.60
2023-12-30T19:00:07.105Z,12.73
2023-12-30T19:02:24.079Z,15.80
2023-12-30T19:04:41.500Z,13.40
2023-12-30T19:06:58.844Z,14.02
2023-12-30T19:09:15.877Z,12.77
2023-12-30T19:11:32.833Z,12.68
2023-12-30T19:13:50.204Z,8.93
2023-12-30T19:16:07.678Z,15.60
2023-12-30T19:18:25.188Z,12.15
2023-12-30T19:20:42.196Z,13.40
2023-12-30T19:22:59.370Z,17.48
2023-12-30T19:25:16.458Z,14.82
2023-12-30T19:27:33.461Z,14.85
2023-12-30T19:29:50.462Z,16.58
2023-12-30T19:32:07.393Z,17.15
2023-12-30T19:34:25.195Z,16.45
2023-12-30T19:36:42.561Z,13.77
2023-12-30T19:38:59.731Z,15.93
2023-12-30T19:41:16.720Z,13.52
2023-12-30T19:43:34.125Z,13.77
2023-12-30T19:45:51.512Z,14.48
2023-12-30T19:48:08.701Z,14.00
2023-12-30T19:50:27.020Z,15.75
2023-12-30T19:52:44.032Z,14.30
2023-12-30T19:55:01.359Z,12.82
2023-12-30T19:57:18.322Z,12.02
2023-12-30T19:59:35.264Z,14.00
2023-12-30T20:01:53.699Z,9.68
2023-12-30T20:04:11.067Z,12.48
2023-12-30T20:06:28.459Z,12.48
2023-12-30T20:08:45.753Z,9.73
2023-12-30T20:11:02.862Z,19.40
2023-12-30T20:13:19.896Z,13.27
2023-12-30T20:15:36.779Z,13.20
2023-12-30T20:17:54.157Z,10.90
2023-12-30T20:20:11.155Z,9.55
2023-12-30T20:22:28.886Z,16.88
2023-12-30T20:24:45.901Z,16.35
2023-12-30T20:27:02.871Z,9.15
2023-12-30T20:29:19.843Z,11.27
2023-12-30T20:31:37.296Z,10.63
2023-12-30T20:33:54.627Z,11.13
2023-12-30T20:36:11.928Z,10.90
2023-12-30T20:38:29.271Z,10.73
2023-12-30T20:40:47.297Z,13.43
2023-12-30T20:43:05.236Z,10.75
2023-12-30T20:45:22.772Z,10.55
2023-12-30T20:47:39.825Z,9.27
2023-12-30T20:49:56.911Z,8.93
2023-12-30T20:52:13.920Z,8.50
2023-12-30T20:54:31.283Z,9.63
2023-12-30T20:56:48.665Z,14.23
2023-12-30T20:59:05.574Z,11.35
2023-12-30T21:01:23.048Z,10.48
2023-12-30T21:03:41.122Z,9.13
2023-12-30T21:05:58.129Z,12.15
2023-12-30T21:08:15.413Z,9.30
2023-12-30T21:10:32.411Z,11.45
2023-12-30T21:12:49.505Z,11.95
2023-12-30T21:15:06.557Z,11.38
2023-12-30T21:17:23.893Z,10.40
2023-12-30T21:19:40.861Z,6.95
2023-12-30T21:21:57.789Z,9.35
2023-12-30T21:24:15.141Z,9.80
2023-12-30T21:26:32.147Z,13.60
2023-12-30T21:28:49.172Z,9.98
2023-12-30T21:31:06.215Z,11.45
2023-12-30T21:33:23.682Z,13.93
2023-12-30T21:35:40.774Z,10.65
2023-12-30T21:37:57.872Z,10.90
2023-12-30T21:40:14.878Z,9.98
2023-12-30T21:42:32.300Z,7.55
2023-12-30T21:44:49.333Z,6.53
2023-12-30T21:47:07.206Z,8.02
2023-12-30T21:49:24.332Z,8.15
2023-12-30T21:51:41.523Z,10.95
2023-12-30T21:53:58.491Z,7.90
2023-12-30T21:56:15.896Z,8.82
2023-12-30T21:58:33.862Z,10.40
2023-12-30T22:00:51.304Z,10.02
2023-12-30T22:03:08.772Z,12.57
2023-12-30T22:05:25.844Z,6.65
2023-12-30T22:07:42.936Z,9.85
2023-12-30T22:09:59.961Z,11.93
2023-12-30T22:12:16.929Z,7.65
2023-12-30T22:14:34.225Z,8.05
2023-12-30T22:16:51.228Z,13.10
2023-12-30T22:19:08.389Z,9.32
2023-12-30T22:21:25.436Z,8.95
2023-12-30T22:23:42.780Z,8.90
2023-12-30T22:25:59.736Z,12.48
2023-12-30T22:28:16.720Z,8.38
2023-12-30T22:30:33.975Z,9.82
2023-12-30T22:32:51.141Z,6.80
2023-12-30T22:35:08.226Z,6.97
2023-12-30T22:37:25.635Z,10.85
2023-12-30T22:39:42.942Z,8.60
2023-12-30T22:41:59.931Z,6.40
2023-12-30T22:44:17.278Z,6.88
2023-12-30T22:46:34.346Z,8.27
2023-12-30T22:48:51.759Z,8.13
2023-12-30T22:51:09.120Z,11.85
2023-12-30T22:53:26.121Z,5.00
2023-12-30T22:55:43.143Z,6.10
2023-12-30T22:58:00.328Z,7.25
2023-12-30T23:00:17.391Z,7.90
2023-12-30T23:02:34.386Z,6.40
2023-12-30T23:04:51.507Z,8.18
2023-12-30T23:07:08.816Z,8.23
2023-12-30T23:09:25.736Z,5.40
2023-12-30T23:11:43.070Z,8.57
2023-12-30T23:14:00.485Z,7.32
2023-12-30T23:16:17.501Z,8.60
2023-12-30T23:18:34.911Z,6.65
2023-12-30T23:20:51.915Z,7.93
2023-12-30T23:23:08.920Z,5.97
2023-12-30T23:25:25.906Z,8.65
2023-12-30T23:27:43.195Z,6.82
2023-12-30T23:30:00.609Z,8.65
2023-12-30T23:32:17.584Z,6.13
2023-12-30T23:34:42.864Z,7.30
2023-12-30T23:37:06.354Z,7.75
2023-12-30T23:39:23.687Z,9.38
2023-12-30T23:41:40.660Z,5.45
2023-12-30T23:43:58.040Z,5.63
2023-12-30T23:46:15.031Z,5.43
2023-12-30T23:48:32.352Z,4.55
2023-12-30T23:50:49.377Z,4.40
2023-12-30T23:53:06.964Z,6.03
2023-12-30T23:55:24.343Z,4.50
2023-12-30T23:57:41.668Z,5.43
